createdAt,value
2023-03-06T00:03:58.000Z,13.00
2023-03-06T00:13:58.000Z,11.50
2023-03-06T00:23:58.000Z,13.30
2023-03-06T00:33:57.000Z,12.60
2023-03-06T00:43:57.000Z,14.30
2023-03-06T00:53:57.000Z,14.20
2023-03-06T01:03:57.000Z,16.10
2023-03-06T01:23:57.000Z,14.80
2023-03-06T01:33:56.000Z,15.80
2023-03-06T01:43:56.000Z,15.40
2023-03-06T01:53:56.000Z,17.10
2023-03-06T02:03:56.000Z,14.40
2023-03-06T02:13:56.000Z,18.20
2023-03-06T02:23:56.000Z,17.40
2023-03-06T02:33:55.000Z,16.80
2023-03-06T02:53:55.000Z,17.40
2023-03-06T03:03:55.000Z,20.10
2023-03-06T03:13:55.000Z,18.20
2023-03-06T03:23:55.000Z,17.30
2023-03-06T03:54:12.000Z,21.20
2023-03-06T04:19:48.000Z,21.90
2023-03-06T04:45:24.000Z,20.00
2023-03-06T05:00:41.000Z,22.50
2023-03-06T05:00:41.000Z,21.70
2023-03-06T05:10:41.000Z,19.30
2023-03-06T05:20:41.000Z,22.00
2023-03-06T05:30:41.000Z,22.90
2023-03-06T05:40:41.000Z,22.70
2023-03-06T05:50:41.000Z,24.70
2023-03-06T06:00:42.000Z,24.60
2023-03-06T06:10:42.000Z,22.20
2023-03-06T06:30:42.000Z,24.00
2023-03-06T06:30:42.000Z,24.00
2023-03-06T06:30:42.000Z,24.00
2023-03-06T06:40:42.000Z,25.40
2023-03-06T06:50:42.000Z,24.80
2023-03-06T07:00:42.000Z,22.80
2023-03-06T07:31:00.000Z,24.90
2023-03-06T07:46:18.000Z,24.90
2023-03-06T07:46:18.000Z,24.20
2023-03-06T09:25:28.000Z,31.00
2023-03-06T09:45:46.000Z,29.00
2023-03-06T09:45:46.000Z,27.00
2023-03-06T09:55:46.000Z,30.40
2023-03-06T10:05:45.000Z,30.50
2023-03-06T10:15:45.000Z,32.20
2023-03-06T10:25:45.000Z,36.40
2023-03-06T10:35:45.000Z,34.50
2023-03-06T10:45:45.000Z,38.30
2023-03-06T10:55:44.000Z,37.40
2023-03-06T11:15:44.000Z,32.00
2023-03-06T11:25:44.000Z,31.40
2023-03-06T11:35:43.000Z,27.50
2023-03-06T11:45:43.000Z,30.40
2023-03-06T11:55:43.000Z,28.40
2023-03-06T12:05:42.000Z,30.70
2023-03-06T12:15:42.000Z,28.60
2023-03-06T12:25:42.000Z,17.50
2023-03-06T12:45:42.000Z,20.20
2023-03-06T12:55:41.000Z,19.30
2023-03-06T13:05:41.000Z,14.30
2023-03-06T13:15:41.000Z,16.70
2023-03-06T13:25:41.000Z,20.60
2023-03-06T13:35:41.000Z,22.90
2023-03-06T13:45:41.000Z,26.30
2023-03-06T13:55:41.000Z,24.70
2023-03-06T14:15:40.000Z,25.50
2023-03-06T14:25:40.000Z,21.70
2023-03-06T14:35:40.000Z,23.30
2023-03-06T14:45:40.000Z,24.70
2023-03-06T14:55:39.000Z,23.40
2023-03-06T15:05:39.000Z,25.20
2023-03-06T15:15:39.000Z,24.70
2023-03-06T15:25:39.000Z,17.30
2023-03-06T15:45:38.000Z,17.00
2023-03-06T15:55:38.000Z,17.60
2023-03-06T16:05:38.000Z,18.80
2023-03-06T16:15:38.000Z,18.70
2023-03-06T16:25:38.000Z,18.40
2023-03-06T16:35:37.000Z,19.60
2023-03-06T16:45:37.000Z,25.30
2023-03-06T16:55:37.000Z,21.90
2023-03-06T17:15:37.000Z,20.30
2023-03-06T17:25:37.000Z,18.30
2023-03-06T17:35:37.000Z,18.90
2023-03-06T17:45:37.000Z,20.80
2023-03-06T17:55:37.000Z,20.30
2023-03-06T18:05:37.000Z,22.70
2023-03-06T18:15:37.000Z,22.70
2023-03-06T18:25:37.000Z,30.10
2023-03-06T18:45:37.000Z,28.30
2023-03-06T18:55:37.000Z,30.80
2023-03-06T19:05:36.000Z,31.10
2023-03-06T19:15:36.000Z,73.50
2023-03-06T19:25:36.000Z,38.10
2023-03-06T19:35:36.000Z,27.10
2023-03-06T19:45:36.000Z,25.50
2023-03-06T19:55:36.000Z,22.30
2023-03-06T20:15:37.000Z,23.40
2023-03-06T20:25:37.000Z,25.50
2023-03-06T20:35:37.000Z,27.70
2023-03-06T20:45:37.000Z,27.00
2023-03-06T20:55:37.000Z,30.80
2023-03-06T21:05:37.000Z,26.70
2023-03-06T21:15:37.000Z,31.00
2023-03-06T21:25:37.000Z,33.70
2023-03-06T21:45:38.000Z,33.00
2023-03-06T21:55:38.000Z,32.80
2023-03-06T22:05:38.000Z,32.90
2023-03-06T22:15:38.000Z,33.60
2023-03-06T22:25:38.000Z,32.60
2023-03-06T22:35:39.000Z,31.80
2023-03-06T22:45:39.000Z,32.30
2023-03-06T22:55:39.000Z,35.70
2023-03-06T23:15:40.000Z,36.50
2023-03-06T23:25:40.000Z,36.40
2023-03-06T23:35:40.000Z,37.10
2023-03-06T23:45:40.000Z,39.20
2023-03-06T23:55:40.000Z,40.50
